Time;durP1;ratioP1;P1;durP2;ratioP2;P2;SDS_P1;SDS_P2;PMS_P1;PMS_P2;Temp;Humidity;BMP_temperature;BMP_pressure;BME280_temperature;BME280_humidity;BME280_pressure;Samples;Min_cycle;Max_cycle;Signal;HPM_P1;HPM_P2
2021/01/15 00:01:19;;;;;;;7.70;5.27;;;3.20;80.80;;;;;;5073794;28;20831;-72
2021/01/15 00:03:45;;;;;;;8.00;4.83;;;3.20;80.50;;;;;;5074097;28;20468;-72
2021/01/15 00:06:19;;;;;;;6.20;4.53;;;3.20;80.30;;;;;;5074401;28;20441;-72
2021/01/15 00:08:45;;;;;;;4.73;3.70;;;3.20;80.30;;;;;;5073788;28;20436;-72
2021/01/15 00:11:16;;;;;;;5.40;4.90;;;3.20;80.10;;;;;;5073634;28;21013;-72
2021/01/15 00:13:42;;;;;;;4.70;4.30;;;3.10;80.00;;;;;;5074013;28;20467;-72
2021/01/15 00:16:21;;;;;;;8.40;4.80;;;3.20;80.20;;;;;;5073929;28;20472;-72
2021/01/15 00:18:47;;;;;;;6.07;4.80;;;3.10;79.80;;;;;;5073589;28;20429;-72
2021/01/15 00:21:22;;;;;;;9.07;4.43;;;3.10;80.50;;;;;;5073777;28;20479;-73
2021/01/15 00:23:49;;;;;;;5.10;4.10;;;3.10;80.10;;;;;;5073734;28;20484;-73
2021/01/15 00:26:16;;;;;;;5.40;4.10;;;3.10;80.30;;;;;;5073424;28;20441;-73
2021/01/15 00:28:43;;;;;;;5.07;3.97;;;3.10;80.60;;;;;;5073463;28;20799;-73
2021/01/15 00:31:09;;;;;;;5.60;4.20;;;3.10;80.70;;;;;;5073663;28;20474;-72
2021/01/15 00:33:36;;;;;;;4.93;4.43;;;3.10;80.50;;;;;;5073407;28;20471;-72
2021/01/15 00:36:03;;;;;;;5.70;4.60;;;3.00;80.30;;;;;;5073667;28;20453;-72
2021/01/15 00:38:30;;;;;;;4.73;4.33;;;3.00;80.60;;;;;;5073300;28;20443;-73
2021/01/15 00:41:00;;;;;;;5.90;4.60;;;3.00;80.70;;;;;;5073256;28;20975;-73
2021/01/15 00:43:26;;;;;;;4.70;4.30;;;3.00;80.70;;;;;;5073756;28;20476;-72
2021/01/15 00:45:52;;;;;;;6.83;4.90;;;3.00;80.70;;;;;;5073217;28;20975;-72
2021/01/15 00:48:18;;;;;;;5.27;4.77;;;3.00;80.80;;;;;;5073574;28;20519;-72
2021/01/15 00:50:46;;;;;;;4.83;4.43;;;3.00;80.80;;;;;;5073148;28;21005;-72
2021/01/15 00:53:12;;;;;;;8.80;5.63;;;3.00;80.80;;;;;;5073499;28;20439;-72
2021/01/15 00:55:38;;;;;;;7.40;5.23;;;3.00;80.50;;;;;;5073458;28;20439;-73
2021/01/15 00:58:04;;;;;;;6.57;4.83;;;3.00;80.10;;;;;;5073336;28;20498;-73
2021/01/15 01:00:31;;;;;;;4.93;4.33;;;3.00;80.30;;;;;;5073341;28;20447;-73
2021/01/15 01:02:57;;;;;;;5.20;4.70;;;3.00;80.50;;;;;;5073583;28;20479;-73
2021/01/15 01:05:23;;;;;;;5.97;4.47;;;3.00;80.50;;;;;;5073059;28;20941;-73
2021/01/15 01:07:51;;;;;;;7.13;4.53;;;3.00;80.30;;;;;;5073317;28;20457;-73
2021/01/15 01:10:17;;;;;;;6.20;4.53;;;2.90;80.00;;;;;;5073209;28;20918;-72
2021/01/15 01:12:44;;;;;;;5.53;5.03;;;2.90;79.80;;;;;;5073218;28;20490;-73
2021/01/15 01:15:12;;;;;;;8.07;6.47;;;2.90;79.70;;;;;;5073275;28;20459;-73
2021/01/15 01:17:39;;;;;;;7.97;6.10;;;2.90;79.70;;;;;;5073243;28;20523;-73
2021/01/15 01:20:07;;;;;;;15.63;8.37;;;2.90;79.70;;;;;;5073208;28;20440;-73
2021/01/15 01:22:34;;;;;;;13.93;9.77;;;2.90;79.60;;;;;;5072984;28;20471;-72
2021/01/15 01:25:01;;;;;;;17.07;12.80;;;2.90;79.40;;;;;;5073140;28;20448;-72
2021/01/15 01:27:27;;;;;;;14.20;9.00;;;2.90;79.60;;;;;;5072856;28;20800;-72
2021/01/15 01:29:54;;;;;;;12.17;9.93;;;2.80;79.50;;;;;;5073113;28;20452;-72
2021/01/15 01:32:20;;;;;;;15.57;12.70;;;2.80;79.50;;;;;;5073030;28;20520;-72
2021/01/15 01:34:46;;;;;;;11.83;9.77;;;2.80;79.50;;;;;;5073089;28;20424;-72
2021/01/15 01:37:12;;;;;;;9.83;7.53;;;2.70;79.50;;;;;;5073317;28;20451;-72
2021/01/15 01:39:39;;;;;;;13.93;11.13;;;2.70;79.80;;;;;;5073032;28;20851;-72
2021/01/15 01:42:06;;;;;;;14.80;11.43;;;2.70;80.00;;;;;;5072942;28;20468;-72
2021/01/15 01:44:32;;;;;;;22.90;14.90;;;2.60;80.10;;;;;;5072902;28;20480;-72
2021/01/15 01:46:59;;;;;;;19.47;13.00;;;2.60;80.20;;;;;;5072654;28;20869;-72
2021/01/15 01:49:26;;;;;;;15.07;9.90;;;2.60;80.30;;;;;;5072935;28;20470;-72
2021/01/15 01:51:53;;;;;;;15.33;10.00;;;2.60;80.40;;;;;;5072849;28;20466;-72
2021/01/15 01:54:20;;;;;;;18.77;12.80;;;2.60;80.50;;;;;;5072892;28;20438;-72
2021/01/15 01:56:47;;;;;;;15.93;10.63;;;2.60;80.50;;;;;;5072859;28;20450;-72
2021/01/15 01:59:14;;;;;;;11.10;8.20;;;2.60;80.70;;;;;;5072513;28;20968;-72
2021/01/15 02:01:40;;;;;;;9.20;7.17;;;2.50;80.80;;;;;;5072704;28;20459;-72
2021/01/15 02:04:07;;;;;;;9.77;6.30;;;2.50;81.00;;;;;;5072768;28;20467;-72
2021/01/15 02:06:34;;;;;;;9.70;5.47;;;2.50;81.20;;;;;;5072766;28;20479;-72
2021/01/15 02:09:04;;;;;;;7.00;5.97;;;2.50;81.40;;;;;;5072726;28;20501;-72
2021/01/15 02:11:35;;;;;;;8.13;6.30;;;2.50;81.40;;;;;;5075815;28;20548;-72
2021/01/15 02:14:06;;;;;;;7.73;5.90;;;2.50;81.60;;;;;;5076294;28;20430;-72
2021/01/15 02:16:35;;;;;;;6.80;5.27;;;2.50;81.50;;;;;;5076254;28;20441;-72
2021/01/15 02:19:22;;;;;;;8.60;6.57;;;2.40;81.60;;;;;;5076197;28;20454;-72
2021/01/15 02:22:25;;;;;;;7.33;6.63;;;2.40;81.60;;;;;;5075809;28;20470;-72
2021/01/15 02:25:07;;;;;;;6.87;6.00;;;2.40;81.70;;;;;;5075985;28;20482;-72
2021/01/15 02:27:53;;;;;;;7.10;5.47;;;2.40;81.90;;;;;;5076122;28;20438;-72
2021/01/15 02:30:34;;;;;;;6.90;5.83;;;2.40;82.10;;;;;;5076047;28;20434;-72
2021/01/15 02:33:08;;;;;;;8.17;7.33;;;2.40;82.10;;;;;;5075944;28;20424;-72
2021/01/15 02:35:46;;;;;;;12.20;7.03;;;2.40;82.10;;;;;;5075654;28;20915;-72
2021/01/15 02:38:45;;;;;;;8.90;6.57;;;2.40;82.20;;;;;;5076393;28;20428;-72
2021/01/15 02:41:18;;;;;;;10.03;6.70;;;2.40;82.80;;;;;;5073405;28;21063;-72
2021/01/15 02:43:50;;;;;;;9.30;7.40;;;2.40;83.10;;;;;;5075419;28;20513;-72
2021/01/15 02:46:22;;;;;;;11.13;7.30;;;2.40;83.20;;;;;;5075777;28;20427;-72
2021/01/15 02:48:53;;;;;;;11.00;8.10;;;2.40;83.50;;;;;;5075655;28;20439;-72
2021/01/15 02:51:19;;;;;;;11.53;8.20;;;2.40;83.80;;;;;;5075504;28;20510;-72
2021/01/15 02:53:46;;;;;;;11.97;9.30;;;2.40;84.10;;;;;;5075711;28;20442;-72
2021/01/15 02:56:13;;;;;;;12.67;10.27;;;2.50;84.50;;;;;;5075234;28;20434;-73
2021/01/15 02:58:40;;;;;;;11.43;9.40;;;2.50;84.90;;;;;;5075423;28;20497;-73
2021/01/15 03:01:06;;;;;;;15.67;9.43;;;2.50;85.00;;;;;;5075585;28;20461;-73
2021/01/15 03:03:38;;;;;;;14.20;10.00;;;2.50;85.30;;;;;;5075269;28;20480;-73
2021/01/15 03:06:13;;;;;;;12.33;9.73;;;2.60;85.50;;;;;;5075917;28;20423;-73
2021/01/15 03:08:40;;;;;;;13.70;10.33;;;2.60;85.70;;;;;;5075278;28;20434;-73
2021/01/15 03:11:07;;;;;;;15.47;10.83;;;2.60;85.60;;;;;;5074833;28;20483;-73
2021/01/15 03:13:35;;;;;;;13.30;10.00;;;2.70;85.80;;;;;;5075149;28;20446;-73
2021/01/15 03:16:04;;;;;;;13.97;10.10;;;2.60;85.80;;;;;;5075092;28;20448;-73
2021/01/15 03:18:31;;;;;;;15.57;10.23;;;2.70;85.90;;;;;;5075067;28;20448;-72
2021/01/15 03:20:59;;;;;;;12.80;9.63;;;2.70;85.90;;;;;;5073797;28;20479;-72
2021/01/15 03:23:27;;;;;;;14.37;11.13;;;2.70;86.10;;;;;;5074415;28;20850;-72
2021/01/15 03:25:53;;;;;;;13.73;9.70;;;2.70;86.30;;;;;;5074902;28;20445;-73
2021/01/15 03:28:19;;;;;;;12.67;10.50;;;2.70;86.30;;;;;;5074871;28;20469;-73
2021/01/15 03:30:45;;;;;;;15.57;11.03;;;2.70;86.10;;;;;;5074443;28;20461;-73
2021/01/15 03:33:11;;;;;;;12.93;10.73;;;2.70;86.10;;;;;;5074770;28;20518;-73
2021/01/15 03:35:38;;;;;;;15.93;11.03;;;2.80;86.20;;;;;;5074734;28;20451;-73
2021/01/15 03:38:06;;;;;;;13.50;11.07;;;2.80;86.10;;;;;;5075398;28;20444;-73
2021/01/15 03:40:35;;;;;;;14.23;10.17;;;2.80;86.10;;;;;;5074515;28;20810;-73
2021/01/15 03:43:09;;;;;;;15.23;11.20;;;2.80;85.80;;;;;;5074146;28;20444;-73
2021/01/15 03:45:36;;;;;;;12.73;10.40;;;2.80;85.90;;;;;;5074286;28;20804;-73
2021/01/15 03:48:02;;;;;;;14.70;10.27;;;2.80;86.00;;;;;;5074447;28;20447;-73
2021/01/15 03:50:28;;;;;;;13.70;11.10;;;2.90;86.00;;;;;;5074368;28;20458;-73
2021/01/15 03:52:54;;;;;;;12.37;10.47;;;2.90;86.00;;;;;;5074652;28;20444;-73
2021/01/15 03:55:20;;;;;;;13.10;10.30;;;2.90;86.00;;;;;;5074301;28;20451;-73
2021/01/15 03:57:47;;;;;;;12.93;10.53;;;2.90;86.00;;;;;;5073945;28;20942;-73
2021/01/15 04:00:15;;;;;;;13.10;9.50;;;2.90;86.00;;;;;;5074259;28;20447;-73
2021/01/15 04:02:41;;;;;;;19.00;11.70;;;2.90;86.00;;;;;;5074148;28;20529;-73
2021/01/15 04:05:10;;;;;;;16.20;10.90;;;3.00;86.00;;;;;;5073754;28;20487;-73
2021/01/15 04:07:37;;;;;;;12.37;9.80;;;3.00;85.70;;;;;;5074166;28;20439;-73
2021/01/15 04:10:04;;;;;;;13.57;9.83;;;2.90;85.50;;;;;;5073895;28;20803;-73
2021/01/15 04:12:30;;;;;;;15.20;10.13;;;3.00;85.70;;;;;;5073953;28;20467;-73
2021/01/15 04:14:57;;;;;;;16.80;11.47;;;3.00;85.80;;;;;;5074008;28;20447;-73
2021/01/15 04:17:23;;;;;;;13.10;10.17;;;3.00;85.90;;;;;;5074011;28;20427;-73
2021/01/15 04:19:49;;;;;;;14.47;11.37;;;3.00;85.90;;;;;;5073923;28;20447;-73
2021/01/15 04:22:16;;;;;;;11.47;9.30;;;3.00;85.90;;;;;;5073498;28;20816;-73
2021/01/15 04:24:42;;;;;;;14.07;10.20;;;3.00;85.80;;;;;;5073463;28;21023;-73
2021/01/15 04:27:08;;;;;;;11.50;9.67;;;3.00;85.90;;;;;;5073806;28;20458;-73
2021/01/15 04:29:35;;;;;;;12.93;10.40;;;3.00;85.90;;;;;;5073779;28;20478;-73
2021/01/15 04:32:03;;;;;;;15.80;11.03;;;3.00;85.90;;;;;;5073152;28;20517;-73
2021/01/15 04:34:30;;;;;;;13.10;10.73;;;3.00;86.00;;;;;;5073636;28;20447;-73
2021/01/15 04:36:57;;;;;;;12.57;9.77;;;3.00;86.10;;;;;;5073697;28;20450;-73
2021/01/15 04:39:23;;;;;;;16.53;11.53;;;3.00;86.10;;;;;;5073662;28;20439;-73
2021/01/15 04:41:52;;;;;;;14.33;10.63;;;3.00;86.30;;;;;;5073791;28;20468;-73
2021/01/15 04:44:19;;;;;;;13.70;10.90;;;3.00;86.50;;;;;;5073465;28;20512;-73
2021/01/15 04:46:46;;;;;;;14.93;10.80;;;3.00;86.50;;;;;;5073550;28;20436;-73
2021/01/15 04:49:13;;;;;;;13.50;10.90;;;3.00;86.50;;;;;;5073516;28;20444;-73
2021/01/15 04:51:40;;;;;;;13.03;10.40;;;3.00;86.60;;;;;;5073134;28;20506;-73
2021/01/15 04:54:10;;;;;;;13.37;11.13;;;3.00;86.70;;;;;;5073418;28;20521;-73
2021/01/15 04:56:40;;;;;;;12.83;9.77;;;3.00;86.60;;;;;;5073462;28;20447;-73
2021/01/15 04:59:12;;;;;;;13.97;11.20;;;3.00;86.40;;;;;;5073428;28;20542;-73
2021/01/15 05:01:40;;;;;;;15.20;11.07;;;3.00;85.90;;;;;;5073033;28;20472;-73
2021/01/15 05:04:08;;;;;;;12.40;9.47;;;3.00;85.90;;;;;;5073371;28;20576;-73
2021/01/15 05:06:46;;;;;;;16.23;11.23;;;3.00;85.80;;;;;;5073408;28;20492;-73
2021/01/15 05:09:14;;;;;;;13.63;10.10;;;3.00;85.70;;;;;;5073349;28;20438;-73
2021/01/15 05:11:42;;;;;;;15.30;11.97;;;3.00;85.60;;;;;;5073078;28;20501;-73
2021/01/15 05:14:10;;;;;;;11.07;9.43;;;3.00;85.80;;;;;;5073273;28;20458;-73
2021/01/15 05:16:38;;;;;;;13.87;10.87;;;3.00;86.00;;;;;;5073240;28;20454;-73
2021/01/15 05:19:04;;;;;;;15.63;11.20;;;3.00;86.10;;;;;;5073259;28;20539;-73
2021/01/15 05:21:30;;;;;;;16.50;11.73;;;3.00;86.30;;;;;;5072851;28;20467;-73
2021/01/15 05:23:58;;;;;;;14.37;11.70;;;3.00;86.10;;;;;;5073118;28;20483;-73
2021/01/15 05:26:25;;;;;;;17.90;12.50;;;3.00;86.20;;;;;;5073134;28;20471;-73
2021/01/15 05:28:52;;;;;;;17.97;12.10;;;3.00;86.40;;;;;;5073122;28;20458;-73
2021/01/15 05:31:18;;;;;;;17.53;12.23;;;2.90;86.50;;;;;;5073031;28;20474;-73
2021/01/15 05:34:03;;;;;;;17.50;11.70;;;3.00;86.80;;;;;;5072786;28;20490;-73
2021/01/15 05:36:30;;;;;;;15.70;12.67;;;3.00;86.90;;;;;;5072757;28;20909;-73
2021/01/15 05:39:10;;;;;;;16.30;12.17;;;3.00;87.00;;;;;;5072738;28;20511;-73
2021/01/15 05:41:37;;;;;;;18.73;12.43;;;3.00;87.00;;;;;;5072644;28;20988;-73
2021/01/15 05:44:04;;;;;;;16.70;12.40;;;3.00;86.80;;;;;;5072670;28;20467;-73
2021/01/15 05:46:30;;;;;;;18.70;14.03;;;3.00;86.90;;;;;;5076729;28;20451;-73
2021/01/15 05:48:57;;;;;;;18.57;12.70;;;3.00;87.10;;;;;;5076736;28;20440;-73
2021/01/15 05:51:28;;;;;;;18.50;13.40;;;3.00;87.20;;;;;;5076598;28;20471;-73
2021/01/15 05:53:54;;;;;;;20.40;13.70;;;3.00;87.50;;;;;;5076661;28;20872;-73
2021/01/15 05:56:24;;;;;;;18.17;13.20;;;3.10;87.70;;;;;;5076620;28;20448;-73
2021/01/15 05:59:03;;;;;;;18.87;13.40;;;3.10;87.70;;;;;;5076580;28;20435;-73
2021/01/15 06:01:46;;;;;;;19.07;14.43;;;3.10;87.70;;;;;;5076404;28;20467;-73
2021/01/15 06:04:14;;;;;;;20.63;14.27;;;3.10;87.80;;;;;;5074231;28;20505;-73
2021/01/15 06:06:41;;;;;;;21.97;14.70;;;3.10;88.00;;;;;;5076440;28;20447;-73
2021/01/15 06:09:09;;;;;;;19.90;13.50;;;3.10;88.00;;;;;;5076392;28;20485;-73
2021/01/15 06:11:39;;;;;;;20.67;14.80;;;3.20;88.30;;;;;;5076266;28;20478;-73
2021/01/15 06:14:17;;;;;;;22.00;15.30;;;3.20;88.40;;;;;;5076028;28;20937;-73
2021/01/15 06:16:43;;;;;;;16.67;13.67;;;3.20;88.40;;;;;;5076274;28;20436;-73
2021/01/15 06:19:09;;;;;;;18.53;13.50;;;3.10;88.30;;;;;;5076264;28;20421;-73
2021/01/15 06:21:36;;;;;;;21.30;15.00;;;3.20;88.40;;;;;;5076420;28;20478;-73
2021/01/15 06:24:06;;;;;;;17.37;14.43;;;3.20;88.60;;;;;;5076053;28;20482;-73
2021/01/15 06:26:38;;;;;;;19.57;15.30;;;3.20;88.60;;;;;;5076085;28;20440;-73
2021/01/15 06:29:10;;;;;;;21.17;15.73;;;3.20;88.50;;;;;;5076018;28;20431;-74
2021/01/15 06:31:44;;;;;;;22.67;15.90;;;3.20;88.50;;;;;;5075695;28;20478;-73
2021/01/15 06:34:11;;;;;;;20.40;15.20;;;3.20;88.40;;;;;;5075815;28;20852;-73
2021/01/15 06:36:51;;;;;;;21.93;16.07;;;3.20;88.50;;;;;;5075785;28;20441;-73
2021/01/15 06:39:18;;;;;;;21.27;15.87;;;3.20;88.50;;;;;;5076011;28;20432;-73
2021/01/15 06:41:46;;;;;;;17.37;15.23;;;3.20;88.70;;;;;;5075599;28;20502;-73
2021/01/15 06:44:15;;;;;;;22.33;14.10;;;3.20;88.60;;;;;;5076371;28;20834;-73
2021/01/15 06:46:43;;;;;;;19.77;14.87;;;3.20;88.70;;;;;;5075546;28;20494;-73
2021/01/15 06:49:15;;;;;;;22.37;14.60;;;3.30;88.60;;;;;;5075331;28;20960;-73
2021/01/15 06:51:53;;;;;;;20.53;15.30;;;3.30;88.50;;;;;;5075534;28;20463;-73
2021/01/15 06:54:24;;;;;;;28.50;17.00;;;3.30;88.60;;;;;;5075687;28;20463;-73
2021/01/15 06:56:59;;;;;;;27.13;14.33;;;3.30;88.80;;;;;;5075199;28;20486;-74
2021/01/15 06:59:33;;;;;;;24.90;17.40;;;3.30;88.70;;;;;;5075617;28;20459;-73
2021/01/15 07:02:10;;;;;;;19.97;15.77;;;3.20;88.70;;;;;;5075414;28;20504;-73
2021/01/15 07:04:53;;;;;;;20.83;16.13;;;3.20;88.90;;;;;;5076210;28;20828;-73
2021/01/15 07:07:21;;;;;;;26.87;16.77;;;3.20;89.00;;;;;;5075324;28;20432;-73
2021/01/15 07:09:47;;;;;;;22.83;16.03;;;3.20;89.00;;;;;;5075283;28;20454;-73
2021/01/15 07:12:16;;;;;;;22.53;16.70;;;3.20;89.00;;;;;;5074771;28;20475;-73
2021/01/15 07:14:48;;;;;;;25.43;19.90;;;3.20;89.10;;;;;;5075119;28;20447;-73
2021/01/15 07:17:35;;;;;;;26.53;18.47;;;3.20;89.20;;;;;;5075153;28;20436;-73
2021/01/15 07:20:11;;;;;;;23.97;16.47;;;3.30;89.50;;;;;;5075084;28;20435;-73
2021/01/15 07:22:43;;;;;;;24.10;17.10;;;3.30;89.50;;;;;;5075005;28;20467;-73
2021/01/15 07:25:11;;;;;;;23.37;17.13;;;3.30;89.50;;;;;;5075077;28;20827;-73
2021/01/15 07:27:39;;;;;;;24.37;17.60;;;3.30;89.60;;;;;;5075062;28;20444;-73
2021/01/15 07:30:12;;;;;;;25.20;17.00;;;3.30;89.70;;;;;;5074961;28;20456;-73
2021/01/15 07:32:39;;;;;;;26.30;18.23;;;3.30;89.80;;;;;;5074596;28;20992;-73
2021/01/15 07:35:07;;;;;;;26.57;18.93;;;3.30;89.90;;;;;;5074744;28;20444;-73
2021/01/15 07:37:33;;;;;;;24.63;18.33;;;3.30;90.00;;;;;;5074886;28;20546;-73
2021/01/15 07:40:13;;;;;;;29.37;18.53;;;3.30;89.90;;;;;;5074730;28;20452;-73
2021/01/15 07:42:45;;;;;;;23.87;17.20;;;3.30;90.30;;;;;;5074599;28;20474;-73
2021/01/15 07:45:50;;;;;;;26.20;19.37;;;3.30;89.90;;;;;;5074807;28;20465;-73
2021/01/15 07:48:17;;;;;;;34.13;18.87;;;3.30;89.80;;;;;;5074173;28;20906;-73
2021/01/15 07:50:45;;;;;;;25.33;17.97;;;3.40;90.00;;;;;;5073970;28;20972;-73
2021/01/15 07:53:19;;;;;;;28.27;19.10;;;3.40;90.00;;;;;;5074352;28;20497;-73
2021/01/15 07:55:46;;;;;;;26.00;19.17;;;3.30;90.00;;;;;;5074040;28;20925;-73
2021/01/15 07:58:14;;;;;;;27.53;18.47;;;3.30;90.00;;;;;;5073982;28;20945;-73
2021/01/15 08:00:41;;;;;;;27.97;19.50;;;3.40;90.10;;;;;;5074166;28;20441;-73
2021/01/15 08:03:08;;;;;;;24.77;18.40;;;3.40;90.10;;;;;;5074195;28;20441;-74
2021/01/15 08:05:34;;;;;;;31.20;19.83;;;3.40;90.00;;;;;;5074065;28;20479;-74
2021/01/15 08:08:08;;;;;;;27.80;19.50;;;3.40;90.00;;;;;;5073514;28;20445;-74
2021/01/15 08:10:44;;;;;;;30.33;19.63;;;3.40;90.00;;;;;;5073664;28;20459;-73
2021/01/15 08:13:29;;;;;;;26.73;18.97;;;3.40;90.20;;;;;;5074014;28;20480;-73
2021/01/15 08:15:56;;;;;;;32.80;21.23;;;3.40;90.00;;;;;;5074009;28;20454;-73
2021/01/15 08:18:24;;;;;;;30.57;20.00;;;3.40;90.00;;;;;;5073600;28;20801;-73
2021/01/15 08:20:52;;;;;;;29.47;19.77;;;3.50;90.10;;;;;;5073805;28;20471;-73
2021/01/15 08:23:28;;;;;;;26.47;18.10;;;3.50;90.00;;;;;;5073791;28;20447;-73
2021/01/15 08:26:09;;;;;;;28.80;19.13;;;3.50;90.10;;;;;;5074920;28;20432;-73
2021/01/15 08:28:36;;;;;;;28.10;19.30;;;3.50;90.10;;;;;;5073624;28;20435;-73
2021/01/15 08:31:06;;;;;;;26.67;18.83;;;3.50;90.00;;;;;;5073689;28;20480;-73
2021/01/15 08:33:32;;;;;;;26.70;19.73;;;3.60;90.00;;;;;;5073419;28;20963;-73
2021/01/15 08:36:00;;;;;;;26.83;18.70;;;3.60;89.90;;;;;;5073369;28;20812;-73
2021/01/15 08:38:32;;;;;;;26.43;17.93;;;3.60;89.90;;;;;;5073641;28;20447;-73
2021/01/15 08:40:59;;;;;;;25.60;21.43;;;3.60;90.00;;;;;;5073310;28;20464;-73
2021/01/15 08:43:25;;;;;;;27.00;19.23;;;3.60;89.90;;;;;;5073793;28;20448;-73
2021/01/15 08:45:53;;;;;;;26.87;20.10;;;3.70;90.00;;;;;;5074275;28;20459;-73
2021/01/15 08:48:21;;;;;;;30.60;22.30;;;3.60;89.90;;;;;;5073728;28;20449;-73
2021/01/15 08:50:48;;;;;;;32.90;21.80;;;3.70;90.00;;;;;;5073457;28;20813;-73
2021/01/15 08:53:17;;;;;;;26.70;20.07;;;3.70;90.00;;;;;;5073529;28;20432;-73
2021/01/15 08:55:45;;;;;;;29.80;21.40;;;3.70;89.90;;;;;;5073421;28;20495;-73
2021/01/15 08:58:11;;;;;;;34.70;22.07;;;3.80;90.00;;;;;;5073449;28;20498;-73
2021/01/15 09:00:38;;;;;;;30.07;20.10;;;3.80;90.00;;;;;;5073361;28;20440;-73
2021/01/15 09:03:07;;;;;;;31.80;22.10;;;3.80;89.80;;;;;;5073373;28;20451;-73
2021/01/15 09:05:33;;;;;;;35.60;23.10;;;3.80;89.80;;;;;;5073273;28;20848;-73
2021/01/15 09:08:02;;;;;;;33.37;21.53;;;3.90;89.70;;;;;;5073319;28;20481;-73
2021/01/15 09:10:29;;;;;;;30.00;21.80;;;3.90;89.80;;;;;;5072794;28;21005;-73
2021/01/15 09:13:03;;;;;;;31.40;21.80;;;3.90;89.80;;;;;;5073298;28;20432;-73
2021/01/15 09:15:30;;;;;;;28.80;21.57;;;3.90;89.80;;;;;;5073276;28;20868;-73
2021/01/15 09:17:58;;;;;;;30.77;21.37;;;3.90;89.80;;;;;;5073409;28;20425;-73
2021/01/15 09:20:26;;;;;;;29.07;20.20;;;4.00;89.70;;;;;;5077081;28;20433;-73
2021/01/15 09:22:52;;;;;;;29.60;20.00;;;4.00;89.50;;;;;;5077185;28;20463;-73
2021/01/15 09:25:19;;;;;;;26.60;18.77;;;4.00;89.30;;;;;;5077152;28;20472;-73
2021/01/15 09:27:46;;;;;;;24.53;17.83;;;4.00;89.00;;;;;;5076942;28;20436;-73
2021/01/15 09:30:14;;;;;;;27.23;20.47;;;4.10;88.90;;;;;;5077108;28;20447;-73
2021/01/15 09:32:43;;;;;;;27.63;18.13;;;4.10;88.60;;;;;;5076985;28;20468;-73
2021/01/15 09:35:10;;;;;;;28.47;19.33;;;4.10;88.40;;;;;;5077069;28;20443;-73
2021/01/15 09:37:38;;;;;;;29.93;20.57;;;4.10;88.30;;;;;;5077096;28;20436;-73
2021/01/15 09:40:06;;;;;;;30.47;21.20;;;4.20;88.30;;;;;;5077012;28;20535;-74
2021/01/15 09:42:32;;;;;;;31.10;19.10;;;4.20;88.30;;;;;;5076811;28;20464;-73
2021/01/15 09:44:59;;;;;;;27.60;20.47;;;4.20;88.10;;;;;;5077031;28;20468;-73
2021/01/15 09:47:25;;;;;;;23.53;19.30;;;4.20;87.90;;;;;;5076868;28;20425;-73
2021/01/15 09:49:51;;;;;;;25.57;19.17;;;4.20;87.60;;;;;;5076793;28;20440;-73
2021/01/15 09:52:17;;;;;;;25.97;19.50;;;4.20;87.80;;;;;;5076710;28;20460;-73
2021/01/15 09:54:44;;;;;;;28.77;20.80;;;4.20;87.70;;;;;;5076636;28;20440;-73
2021/01/15 09:57:10;;;;;;;24.60;19.17;;;4.20;87.70;;;;;;5076663;28;20432;-73
2021/01/15 09:59:37;;;;;;;25.40;18.93;;;4.20;87.50;;;;;;5076610;28;20451;-73
2021/01/15 10:02:03;;;;;;;26.80;20.33;;;4.30;87.40;;;;;;5076471;28;20547;-73
2021/01/15 10:04:29;;;;;;;26.47;19.57;;;4.20;87.30;;;;;;5076414;28;20492;-73
2021/01/15 10:06:55;;;;;;;29.57;20.40;;;4.30;87.40;;;;;;5076458;28;20448;-73
2021/01/15 10:09:21;;;;;;;29.43;21.63;;;4.30;87.60;;;;;;5076406;28;20425;-73
2021/01/15 10:11:49;;;;;;;27.13;20.00;;;4.30;87.60;;;;;;5076163;28;20495;-73
2021/01/15 10:14:16;;;;;;;27.83;20.23;;;4.30;87.70;;;;;;5076554;28;20433;-73
2021/01/15 10:16:44;;;;;;;31.03;22.23;;;4.30;87.40;;;;;;5075976;28;20941;-73
2021/01/15 10:19:10;;;;;;;28.23;21.13;;;4.30;87.30;;;;;;5075914;28;20941;-73
2021/01/15 10:21:39;;;;;;;27.97;20.87;;;4.30;87.50;;;;;;5076161;28;20834;-73
2021/01/15 10:24:06;;;;;;;31.50;22.20;;;4.30;87.70;;;;;;5076088;28;20480;-73
2021/01/15 10:26:33;;;;;;;31.40;23.30;;;4.40;87.90;;;;;;5076167;28;20784;-73
2021/01/15 10:29:03;;;;;;;27.43;21.00;;;4.40;88.00;;;;;;5075851;28;20445;-73
2021/01/15 10:31:32;;;;;;;36.07;23.10;;;4.40;88.00;;;;;;5075351;28;20833;-73
2021/01/15 10:34:00;;;;;;;31.90;24.57;;;4.50;88.10;;;;;;5075948;28;20444;-73
2021/01/15 10:36:27;;;;;;;29.43;22.17;;;4.50;88.20;;;;;;5075887;28;20456;-73
2021/01/15 10:38:54;;;;;;;36.47;22.87;;;4.50;88.10;;;;;;5075919;28;20475;-73
2021/01/15 10:41:30;;;;;;;35.30;22.57;;;4.60;88.20;;;;;;5075399;28;20460;-73
2021/01/15 10:43:57;;;;;;;31.17;22.93;;;4.70;88.20;;;;;;5075718;28;20801;-73
2021/01/15 10:46:36;;;;;;;27.63;20.07;;;4.80;87.80;;;;;;5075867;28;20851;-73
2021/01/15 10:49:03;;;;;;;31.60;22.97;;;5.00;87.30;;;;;;5075762;28;20482;-73
2021/01/15 10:51:29;;;;;;;33.87;24.10;;;5.20;87.00;;;;;;5075992;28;20473;-73
2021/01/15 10:53:55;;;;;;;29.27;21.97;;;5.50;86.30;;;;;;5075297;28;20433;-73
2021/01/15 10:56:22;;;;;;;34.17;22.63;;;5.80;85.70;;;;;;5075488;28;20449;-73
2021/01/15 10:58:48;;;;;;;30.00;23.97;;;6.10;84.60;;;;;;5075504;28;20445;-73
2021/01/15 11:01:15;;;;;;;34.57;24.37;;;6.30;82.80;;;;;;5075426;28;20460;-73
2021/01/15 11:03:45;;;;;;;28.20;21.63;;;6.50;80.70;;;;;;5075356;28;20498;-73
2021/01/15 11:06:18;;;;;;;29.23;23.10;;;6.60;79.30;;;;;;5076229;28;20436;-73
2021/01/15 11:08:45;;;;;;;34.10;24.97;;;6.60;78.30;;;;;;5075047;28;20898;-73
2021/01/15 11:11:11;;;;;;;29.40;22.13;;;6.70;78.40;;;;;;5074908;28;20480;-73
2021/01/15 11:13:37;;;;;;;29.80;23.30;;;6.70;77.90;;;;;;5074897;28;20475;-73
2021/01/15 11:16:11;;;;;;;30.63;21.80;;;6.70;77.00;;;;;;5075754;28;20513;-74
2021/01/15 11:18:37;;;;;;;30.20;20.30;;;6.70;76.90;;;;;;5075969;28;20433;-73
2021/01/15 11:21:04;;;;;;;33.63;22.93;;;6.70;77.80;;;;;;5075019;28;20887;-73
2021/01/15 11:23:31;;;;;;;34.73;23.53;;;6.80;77.00;;;;;;5075269;28;20440;-73
2021/01/15 11:25:57;;;;;;;34.00;21.70;;;6.80;76.70;;;;;;5074908;28;20440;-73
2021/01/15 11:28:23;;;;;;;36.53;24.93;;;6.70;76.20;;;;;;5074546;28;20494;-73
2021/01/15 11:30:49;;;;;;;27.17;19.70;;;6.70;76.30;;;;;;5074764;28;20472;-74
2021/01/15 11:33:16;;;;;;;35.30;25.20;;;6.70;75.30;;;;;;5074835;28;20447;-73
2021/01/15 11:35:42;;;;;;;37.07;27.40;;;6.80;75.30;;;;;;5074794;28;20448;-73
2021/01/15 11:38:09;;;;;;;40.83;29.00;;;6.80;75.20;;;;;;5074697;28;20429;-73
2021/01/15 11:40:35;;;;;;;30.50;22.73;;;6.90;75.20;;;;;;5074647;28;20448;-73
2021/01/15 11:43:01;;;;;;;30.63;23.53;;;7.00;75.30;;;;;;5073709;28;20445;-72
2021/01/15 11:45:28;;;;;;;28.57;21.90;;;7.20;75.10;;;;;;5074509;28;20513;-72
2021/01/15 11:47:55;;;;;;;32.73;23.47;;;7.40;74.20;;;;;;5074203;28;20934;-74
2021/01/15 11:50:23;;;;;;;33.47;23.00;;;7.50;72.90;;;;;;5074416;28;20440;-74
2021/01/15 11:52:53;;;;;;;29.10;21.53;;;7.50;72.10;;;;;;5074364;28;20465;-74
2021/01/15 11:55:21;;;;;;;31.90;23.73;;;7.60;72.00;;;;;;5074436;28;20460;-74
2021/01/15 11:57:50;;;;;;;24.47;19.90;;;7.60;71.30;;;;;;5074049;28;20467;-73
2021/01/15 12:00:17;;;;;;;31.30;23.10;;;7.70;71.30;;;;;;5074322;28;20524;-73
2021/01/15 12:02:43;;;;;;;27.70;21.03;;;7.70;71.10;;;;;;5074171;28;20461;-73
2021/01/15 12:05:11;;;;;;;26.33;20.23;;;7.90;71.30;;;;;;5073994;28;20484;-73
2021/01/15 12:07:37;;;;;;;25.13;18.50;;;8.10;70.60;;;;;;5074179;28;20433;-73
2021/01/15 12:10:04;;;;;;;26.73;18.90;;;8.30;69.90;;;;;;5074013;28;20441;-73
2021/01/15 12:12:35;;;;;;;25.57;18.80;;;8.50;68.50;;;;;;5074170;28;20527;-73
2021/01/15 12:15:01;;;;;;;24.93;18.00;;;8.70;67.20;;;;;;5074034;28;20425;-73
2021/01/15 12:17:27;;;;;;;23.03;18.10;;;8.70;65.30;;;;;;5074034;28;20429;-73
2021/01/15 12:19:53;;;;;;;22.67;18.73;;;8.70;65.30;;;;;;5073812;28;20451;-73
2021/01/15 12:22:20;;;;;;;25.20;18.43;;;8.70;65.20;;;;;;5073853;28;20823;-73
2021/01/15 12:24:46;;;;;;;22.90;18.33;;;8.70;65.10;;;;;;5073722;28;20480;-73
2021/01/15 12:27:12;;;;;;;24.10;18.43;;;8.70;65.00;;;;;;5073589;28;20448;-73
2021/01/15 12:29:39;;;;;;;22.33;18.00;;;8.70;66.10;;;;;;5073800;28;20804;-73
2021/01/15 12:32:05;;;;;;;27.07;19.83;;;8.60;64.90;;;;;;5073698;28;20465;-73
2021/01/15 12:34:32;;;;;;;21.10;16.13;;;8.50;66.70;;;;;;5073919;28;20451;-73
2021/01/15 12:36:58;;;;;;;53.63;30.90;;;8.50;66.10;;;;;;5073752;28;20441;-73
2021/01/15 12:39:24;;;;;;;47.33;29.20;;;8.40;64.00;;;;;;5073744;28;20444;-73
2021/01/15 12:41:50;;;;;;;32.57;21.83;;;8.30;62.70;;;;;;5073471;28;20477;-73
2021/01/15 12:44:16;;;;;;;30.70;22.90;;;8.20;62.30;;;;;;5073610;28;20472;-73
2021/01/15 12:46:43;;;;;;;24.93;17.50;;;8.20;63.90;;;;;;5073752;28;20429;-73
2021/01/15 12:49:10;;;;;;;26.07;17.03;;;8.20;64.80;;;;;;5073671;28;20470;-73